Pagina principale
METAR-TAF:

METAR-TAF

Aeroporti :

Aeroporto di Bologna-Borgo Panigale

Bologna, Italia

latitudine: 44-32N, longitudine: 011-18E, altezza: 36 m

Osservazione

Il bollettino è stato emesso 38 minuti fa, alle 02:50 UTC
Vento 7 kt da sud/sud-ovest
Temperature 8°C
Umidità 71%
Pressione 1022 hPa
Visibilità 10 km o più
nessuna nube inferiore a 1500 m e nessun cumulonembo

METAR: LIPE 270250Z 20007KT CAVOK 08/03 Q1022

Ora: 04:28 (03:28 UTC)

Previsione

Il bollettino è stato emesso 4 ore e 28 minuti fa, alle 23:00 UTC
Previsione valida dal 27 alle 00 UTC al 27 alle 24 UTC
Vento 5 kt da direzioni variabili
Visibilità 10 km o più
nessuna nube inferiore a 1500 m e nessun cumulonembo
Evoluzione graduale
dal 27 alle 09 UTC al 27 alle 11 UTC
Vento 10 kt da est/sud-est

TAF: LIPE 262300Z 2700/2724 VRB05KT CAVOK BECMG 2709/2711 11010KT

Osservazioni e previsioni meteorologiche di più di 4000 aeroporti (messaggi METAR e TAF).

Le stazioni disponibili sono rappresentate dai dischi gialli e rossi sulla carta.

Puntare il mouse per vedere il nome della stazione.

Clicca sopra per visualizzare le osservazioni e previsioni meteorologiche.

Per cambiare la mappa : fare clic sui pulsanti verdi con una croce nera per ingrandire, il pulsante verde con un trattino per diminuire, o sulla freccia verde per le mappe adiacenti.


METAR-TAF: